Time;durP1;ratioP1;P1;durP2;ratioP2;P2;SDS_P1;SDS_P2;PMS_P1;PMS_P2;Temp;Humidity;BMP_temperature;BMP_pressure;BME280_temperature;BME280_humidity;BME280_pressure;Samples;Min_cycle;Max_cycle;Signal;HPM_P1;HPM_P2
2022/08/28 00:00:35;;;;;;;6.43;3.90;;;20.00;99.90;;;;;;5017433;28;20579;-67
2022/08/28 00:03:02;;;;;;;6.25;3.75;;;20.10;99.90;;;;;;5020518;28;20736;-67
2022/08/28 00:05:32;;;;;;;7.72;4.25;;;20.10;99.90;;;;;;5012847;28;20668;-67
2022/08/28 00:07:59;;;;;;;4.63;3.88;;;20.10;99.90;;;;;;5012577;28;20203;-67
2022/08/28 00:10:27;;;;;;;6.13;3.50;;;20.20;99.90;;;;;;5017847;28;20227;-67
2022/08/28 00:12:56;;;;;;;4.53;3.63;;;20.40;99.90;;;;;;5015904;28;20223;-67
2022/08/28 00:15:27;;;;;;;3.75;3.35;;;20.30;99.90;;;;;;5018131;28;20196;-67
2022/08/28 00:17:54;;;;;;;3.65;3.10;;;20.30;99.90;;;;;;5022622;28;20206;-67
2022/08/28 00:20:22;;;;;;;5.40;3.78;;;20.30;99.90;;;;;;5016983;28;20208;-67
2022/08/28 00:22:49;;;;;;;4.93;3.97;;;20.30;99.90;;;;;;5016793;28;20220;-67
2022/08/28 00:25:22;;;;;;;5.77;4.33;;;20.20;99.90;;;;;;5013355;28;20624;-67
2022/08/28 00:27:58;;;;;;;5.13;3.47;;;20.10;99.90;;;;;;5008867;28;20200;-67
2022/08/28 00:30:28;;;;;;;5.78;3.70;;;20.00;99.90;;;;;;5016805;28;20226;-66
2022/08/28 00:32:57;;;;;;;5.50;3.70;;;20.10;99.90;;;;;;5018636;28;20218;-67
2022/08/28 00:35:25;;;;;;;3.93;3.40;;;20.20;99.90;;;;;;5019817;28;20195;-67
2022/08/28 00:37:53;;;;;;;6.00;3.70;;;20.20;99.90;;;;;;5024247;28;20544;-67
2022/08/28 00:40:23;;;;;;;5.80;3.50;;;20.10;99.90;;;;;;5011656;28;20214;-67
2022/08/28 00:42:56;;;;;;;5.00;3.60;;;20.10;99.90;;;;;;5016397;28;20650;-66
2022/08/28 00:45:24;;;;;;;5.87;3.57;;;20.10;99.90;;;;;;5023281;28;20596;-67
2022/08/28 00:47:51;;;;;;;4.77;3.67;;;20.10;99.90;;;;;;5019547;28;20218;-67
2022/08/28 00:50:25;;;;;;;4.40;3.70;;;20.10;99.90;;;;;;5012863;28;20230;-67
2022/08/28 00:52:58;;;;;;;5.67;3.63;;;20.00;99.90;;;;;;5020762;28;20215;-67
2022/08/28 00:55:27;;;;;;;4.77;3.63;;;20.00;99.90;;;;;;5017910;28;20227;-67
2022/08/28 00:57:57;;;;;;;6.20;3.70;;;20.00;99.90;;;;;;5019384;28;20196;-67
2022/08/28 01:00:33;;;;;;;4.50;3.60;;;19.90;99.90;;;;;;5014326;28;20573;-67
2022/08/28 01:03:00;;;;;;;5.00;3.20;;;19.90;99.90;;;;;;5013512;28;20223;-67
2022/08/28 01:05:28;;;;;;;4.97;3.43;;;20.00;99.90;;;;;;5013447;28;20231;-67
2022/08/28 01:07:57;;;;;;;4.03;3.60;;;19.90;99.90;;;;;;5017557;28;20195;-67
2022/08/28 01:10:27;;;;;;;5.50;3.45;;;19.90;99.90;;;;;;5019736;28;20645;-67
2022/08/28 01:12:56;;;;;;;4.97;3.30;;;20.00;99.90;;;;;;5016779;28;20228;-67
2022/08/28 01:15:30;;;;;;;5.13;3.50;;;19.90;99.90;;;;;;5017824;28;20207;-67
2022/08/28 01:18:04;;;;;;;5.53;3.80;;;20.00;99.90;;;;;;5019942;28;20287;-67
2022/08/28 01:20:36;;;;;;;4.27;3.20;;;19.80;99.90;;;;;;5021000;28;20231;-67
2022/08/28 01:23:48;;;;;;;4.47;3.70;;;19.70;99.90;;;;;;5016990;28;20692;-67
2022/08/28 01:26:14;;;;;;;6.50;3.35;;;19.70;99.90;;;;;;5011387;28;20668;-67
2022/08/28 01:28:41;;;;;;;4.57;3.47;;;19.80;99.90;;;;;;5020935;28;20196;-67
2022/08/28 01:31:10;;;;;;;4.10;3.40;;;19.80;99.90;;;;;;5021144;28;20683;-67
2022/08/28 01:33:39;;;;;;;4.87;3.90;;;19.90;99.90;;;;;;5017616;28;20201;-67
2022/08/28 01:36:11;;;;;;;4.70;3.57;;;19.90;99.90;;;;;;5019642;28;20668;-67
2022/08/28 01:38:39;;;;;;;5.80;3.37;;;19.80;99.90;;;;;;5018263;28;20287;-67
2022/08/28 01:41:06;;;;;;;5.50;3.60;;;19.90;99.90;;;;;;5013617;28;20203;-67
2022/08/28 01:43:33;;;;;;;4.43;3.40;;;20.00;99.90;;;;;;5017234;28;20211;-67
2022/08/28 01:46:03;;;;;;;3.90;3.23;;;19.80;99.90;;;;;;5016366;28;20204;-67
2022/08/28 01:48:34;;;;;;;4.70;3.57;;;19.80;99.90;;;;;;5012167;28;20231;-67
2022/08/28 01:51:03;;;;;;;6.00;3.70;;;19.80;99.90;;;;;;5011777;28;20223;-67
2022/08/28 01:53:31;;;;;;;5.10;3.77;;;19.80;99.90;;;;;;5016026;28;20196;-67
2022/08/28 01:56:01;;;;;;;4.67;3.47;;;19.90;99.90;;;;;;5019049;28;20208;-67
2022/08/28 01:58:30;;;;;;;4.35;3.40;;;19.90;99.90;;;;;;5018111;28;20192;-67
2022/08/28 02:01:08;;;;;;;5.22;3.33;;;19.90;99.90;;;;;;5015492;28;20199;-67
2022/08/28 02:03:35;;;;;;;5.33;3.00;;;19.90;99.90;;;;;;5014005;28;20208;-67
2022/08/28 02:06:02;;;;;;;6.30;3.57;;;20.00;99.90;;;;;;5016085;28;20200;-67
2022/08/28 02:08:29;;;;;;;6.27;3.57;;;20.00;99.90;;;;;;5022966;28;20199;-67
2022/08/28 02:10:55;;;;;;;5.05;3.78;;;20.00;99.90;;;;;;5023972;28;20914;-66
2022/08/28 02:13:22;;;;;;;5.10;3.20;;;20.10;99.90;;;;;;5020056;28;20199;-67
2022/08/28 02:15:51;;;;;;;5.00;3.47;;;20.10;99.90;;;;;;5013175;28;20572;-66
2022/08/28 02:18:18;;;;;;;4.57;3.43;;;20.10;99.90;;;;;;5014488;28;20579;-67
2022/08/28 02:20:45;;;;;;;5.63;3.80;;;20.10;99.90;;;;;;5012160;28;20206;-66
2022/08/28 02:23:12;;;;;;;4.47;3.80;;;20.10;99.90;;;;;;5011873;28;20216;-66
2022/08/28 02:25:39;;;;;;;5.32;3.75;;;20.10;99.90;;;;;;5012236;28;20250;-66
2022/08/28 02:28:06;;;;;;;5.97;3.70;;;20.10;99.90;;;;;;5017077;28;20196;-66
2022/08/28 02:30:32;;;;;;;4.50;3.40;;;20.00;99.90;;;;;;5010511;28;22340;-67
2022/08/28 02:32:59;;;;;;;5.00;3.50;;;19.90;99.90;;;;;;5020238;28;20715;-66
2022/08/28 02:35:26;;;;;;;5.40;3.40;;;20.00;99.90;;;;;;5018801;28;20214;-66
2022/08/28 02:37:52;;;;;;;5.50;3.80;;;19.90;99.90;;;;;;5020620;28;20210;-66
2022/08/28 02:40:23;;;;;;;4.90;3.60;;;19.90;99.90;;;;;;5021349;28;20204;-66
2022/08/28 02:42:50;;;;;;;6.33;3.50;;;19.90;99.90;;;;;;5016056;28;20216;-66
2022/08/28 02:45:19;;;;;;;4.90;3.47;;;19.90;99.90;;;;;;5014325;28;20206;-67
2022/08/28 02:47:46;;;;;;;4.47;3.70;;;19.90;99.90;;;;;;5017904;28;20214;-67
2022/08/28 02:50:15;;;;;;;3.50;3.10;;;19.90;99.90;;;;;;5027700;28;20280;-67
2022/08/28 02:52:42;;;;;;;6.50;3.50;;;19.80;99.90;;;;;;5020935;28;20212;-67
2022/08/28 02:55:11;;;;;;;4.25;3.20;;;19.80;99.90;;;;;;5027222;28;20204;-67
2022/08/28 02:57:39;;;;;;;4.47;3.50;;;19.80;99.90;;;;;;5020237;28;20197;-67
2022/08/28 03:00:12;;;;;;;6.70;3.40;;;19.80;99.90;;;;;;5027040;28;20571;-67
2022/08/28 03:02:40;;;;;;;5.70;3.07;;;19.90;99.90;;;;;;5014481;28;20234;-66
2022/08/28 03:05:08;;;;;;;4.30;3.13;;;19.90;99.90;;;;;;5040438;28;20234;-67
2022/08/28 03:07:35;;;;;;;5.20;3.63;;;19.90;99.90;;;;;;5016450;28;20212;-66
2022/08/28 03:10:03;;;;;;;4.53;3.37;;;19.90;99.90;;;;;;5018381;28;20200;-66
2022/08/28 03:12:30;;;;;;;3.77;3.23;;;19.90;99.90;;;;;;5018058;28;20278;-66
2022/08/28 03:14:57;;;;;;;3.90;2.90;;;19.90;99.90;;;;;;5009437;28;20556;-66
2022/08/28 03:17:24;;;;;;;5.60;3.00;;;19.90;99.90;;;;;;5016269;28;20199;-66
2022/08/28 03:19:51;;;;;;;5.90;3.63;;;19.90;99.90;;;;;;5015990;28;20211;-67
2022/08/28 03:25:05;;;;;;;7.30;3.50;;;19.80;99.90;;;;;;5013238;28;20196;-67
2022/08/28 03:27:32;;;;;;;5.53;3.40;;;19.70;99.90;;;;;;5017735;28;20246;-67
2022/08/28 03:29:58;;;;;;;7.20;3.33;;;19.80;99.90;;;;;;5018366;28;20193;-67
2022/08/28 03:32:25;;;;;;;6.27;3.60;;;19.70;99.90;;;;;;5018404;28;20231;-67
2022/08/28 03:34:54;;;;;;;4.87;3.60;;;19.80;99.90;;;;;;5008955;28;20207;-67
2022/08/28 03:37:21;;;;;;;5.77;3.53;;;19.80;99.90;;;;;;5018550;28;20187;-67
2022/08/28 03:39:48;;;;;;;3.93;3.33;;;19.70;99.90;;;;;;5020232;28;20608;-67
2022/08/28 03:42:15;;;;;;;4.27;3.17;;;19.70;99.90;;;;;;5015137;28;20217;-67
2022/08/28 03:44:42;;;;;;;6.43;3.40;;;19.70;99.90;;;;;;5018655;28;20230;-67
2022/08/28 03:47:09;;;;;;;5.30;3.37;;;19.80;99.90;;;;;;5023631;28;20203;-67
2022/08/28 03:49:36;;;;;;;4.30;3.20;;;19.70;99.90;;;;;;5014934;28;20192;-67
2022/08/28 03:52:02;;;;;;;5.43;3.07;;;19.70;99.90;;;;;;5018044;28;20223;-67
2022/08/28 03:54:30;;;;;;;6.33;3.27;;;19.70;99.90;;;;;;5024312;28;20208;-67
2022/08/28 03:56:57;;;;;;;7.73;3.20;;;19.70;99.90;;;;;;5024924;28;20196;-67
2022/08/28 03:59:24;;;;;;;6.90;3.27;;;19.50;99.90;;;;;;5021820;28;20574;-67
2022/08/28 04:01:59;;;;;;;8.17;3.00;;;19.60;99.90;;;;;;5013493;28;20220;-67
2022/08/28 04:04:26;;;;;;;7.63;3.20;;;19.50;99.90;;;;;;5017993;28;20691;-67
2022/08/28 04:06:53;;;;;;;8.37;2.97;;;19.60;99.90;;;;;;5014754;28;20196;-67
2022/08/28 04:09:20;;;;;;;5.30;3.10;;;19.60;99.90;;;;;;5015265;28;20219;-67
2022/08/28 04:11:46;;;;;;;5.67;2.53;;;19.50;99.90;;;;;;5016572;28;20227;-67
2022/08/28 04:14:13;;;;;;;6.37;2.53;;;19.50;99.90;;;;;;5019903;28;20213;-67
2022/08/28 04:16:40;;;;;;;6.07;3.00;;;19.50;99.90;;;;;;5017427;28;20216;-67
2022/08/28 04:19:06;;;;;;;5.07;2.90;;;19.50;99.90;;;;;;5008517;28;20199;-67
2022/08/28 04:21:33;;;;;;;4.47;2.80;;;19.50;99.90;;;;;;5017564;28;20224;-67
2022/08/28 04:24:00;;;;;;;7.13;3.07;;;19.40;99.90;;;;;;5006200;28;20211;-66
2022/08/28 04:26:28;;;;;;;4.70;3.13;;;19.30;99.90;;;;;;5032282;28;20238;-66
2022/08/28 04:28:55;;;;;;;6.97;2.93;;;19.10;99.90;;;;;;5016912;28;20214;-66
2022/08/28 04:31:22;;;;;;;4.87;3.07;;;19.10;99.90;;;;;;5019884;28;20224;-66
2022/08/28 04:34:00;;;;;;;5.27;2.60;;;19.10;99.90;;;;;;5014722;28;20274;-66
2022/08/28 04:36:27;;;;;;;7.00;3.00;;;19.20;99.90;;;;;;5016700;28;20192;-66
2022/08/28 04:38:54;;;;;;;8.97;3.00;;;19.10;99.90;;;;;;5010119;28;20211;-66
2022/08/28 04:41:21;;;;;;;4.27;2.70;;;19.20;99.90;;;;;;5014253;28;20488;-66
2022/08/28 04:43:49;;;;;;;4.90;2.80;;;19.10;99.90;;;;;;5019228;28;20203;-66
2022/08/28 04:46:16;;;;;;;7.03;2.67;;;19.20;99.90;;;;;;5017804;28;20199;-66
2022/08/28 04:48:43;;;;;;;6.33;2.67;;;19.30;99.90;;;;;;5013766;28;20196;-66
2022/08/28 04:51:13;;;;;;;7.60;2.83;;;19.20;99.90;;;;;;5012829;28;20226;-66
2022/08/28 04:53:41;;;;;;;5.70;2.93;;;19.30;99.90;;;;;;5011570;28;20204;-66
2022/08/28 04:56:11;;;;;;;4.63;2.90;;;19.30;99.90;;;;;;5014556;28;20191;-66
2022/08/28 04:58:39;;;;;;;5.90;2.70;;;19.30;99.90;;;;;;5008146;28;20211;-66
2022/08/28 05:01:09;;;;;;;5.53;2.77;;;19.40;99.90;;;;;;5014949;28;20203;-67
2022/08/28 05:03:36;;;;;;;4.87;3.13;;;19.30;99.90;;;;;;5020320;28;20294;-66
2022/08/28 05:06:04;;;;;;;8.37;2.77;;;19.30;99.90;;;;;;5016391;28;20671;-66
2022/08/28 05:08:31;;;;;;;5.10;2.90;;;19.30;99.90;;;;;;5024215;28;20468;-66
2022/08/28 05:11:08;;;;;;;6.17;2.80;;;19.30;99.90;;;;;;5017414;28;20195;-67
2022/08/28 05:13:35;;;;;;;4.00;2.90;;;19.30;99.90;;;;;;5017566;28;20195;-66
2022/08/28 05:16:03;;;;;;;8.17;3.00;;;19.20;99.90;;;;;;5011146;28;20673;-67
2022/08/28 05:18:29;;;;;;;6.53;2.80;;;19.20;99.90;;;;;;5014721;28;20227;-66
2022/08/28 05:20:56;;;;;;;5.87;2.80;;;19.10;99.90;;;;;;5016053;28;20210;-66
2022/08/28 05:23:25;;;;;;;6.20;2.80;;;19.10;99.90;;;;;;5023117;28;20200;-66
2022/08/28 05:25:51;;;;;;;5.43;2.60;;;19.20;99.90;;;;;;5030012;28;20196;-66
2022/08/28 05:28:18;;;;;;;4.17;2.87;;;19.20;99.90;;;;;;5017567;28;20307;-66
2022/08/28 05:30:46;;;;;;;6.57;2.70;;;19.30;99.90;;;;;;5020753;28;20675;-66
2022/08/28 05:33:14;;;;;;;7.27;2.90;;;19.30;99.90;;;;;;5016301;28;20691;-66
2022/08/28 05:35:43;;;;;;;5.87;2.80;;;19.30;99.90;;;;;;5019706;28;20194;-67
2022/08/28 05:38:12;;;;;;;5.90;2.57;;;19.50;99.90;;;;;;5020659;28;20865;-67
2022/08/28 05:40:47;;;;;;;7.43;3.00;;;19.60;99.90;;;;;;5023357;28;21650;-67
2022/08/28 05:43:16;;;;;;;8.17;2.87;;;19.70;99.90;;;;;;5022766;28;20234;-66
2022/08/28 05:45:43;;;;;;;7.00;2.80;;;19.70;99.90;;;;;;5024454;28;20203;-66
2022/08/28 05:48:10;;;;;;;4.93;2.60;;;19.80;99.90;;;;;;5022028;28;20203;-66
2022/08/28 05:50:38;;;;;;;4.93;2.60;;;19.70;99.90;;;;;;5023104;28;20211;-66
2022/08/28 05:53:08;;;;;;;4.00;2.27;;;19.70;99.90;;;;;;5023701;28;20245;-66
2022/08/28 05:55:39;;;;;;;6.83;3.00;;;19.80;99.90;;;;;;5026145;28;20203;-66
2022/08/28 06:00:51;;;;;;;4.67;2.70;;;19.90;99.90;;;;;;5018632;28;20200;-66
2022/08/28 06:03:17;;;;;;;5.47;2.67;;;20.00;99.90;;;;;;5015490;28;20281;-66
2022/08/28 06:05:44;;;;;;;6.20;2.67;;;20.10;99.90;;;;;;5022430;28;20205;-66
2022/08/28 06:08:11;;;;;;;5.67;2.53;;;20.00;99.90;;;;;;5014340;28;20200;-66
2022/08/28 06:10:44;;;;;;;6.40;2.70;;;20.10;99.90;;;;;;5019168;28;20690;-67
2022/08/28 06:13:16;;;;;;;4.68;2.30;;;20.10;99.90;;;;;;5018802;28;20329;-67
2022/08/28 06:15:45;;;;;;;5.87;2.60;;;20.10;99.90;;;;;;5020042;28;20287;-67
2022/08/28 06:18:12;;;;;;;9.25;2.72;;;20.20;99.90;;;;;;5026293;28;20198;-67
2022/08/28 06:20:42;;;;;;;4.43;2.30;;;20.30;99.90;;;;;;5017799;28;20322;-67
2022/08/28 06:23:11;;;;;;;5.15;2.40;;;20.40;99.90;;;;;;5019751;28;20226;-66
2022/08/28 06:25:40;;;;;;;6.82;2.53;;;20.50;99.90;;;;;;5020050;28;20211;-66
2022/08/28 06:28:09;;;;;;;5.10;2.60;;;20.50;99.90;;;;;;5017257;28;20204;-66
2022/08/28 06:30:37;;;;;;;5.05;2.50;;;20.50;99.90;;;;;;5024553;28;20226;-66
2022/08/28 06:33:06;;;;;;;5.63;2.60;;;20.50;99.90;;;;;;5015209;28;20223;-67
2022/08/28 06:35:33;;;;;;;5.57;2.47;;;20.50;99.90;;;;;;5019944;28;20197;-67
2022/08/28 06:38:01;;;;;;;5.20;2.45;;;20.60;99.90;;;;;;5017592;28;20209;-67
2022/08/28 06:40:28;;;;;;;4.10;2.42;;;20.80;99.90;;;;;;5026222;28;20199;-67
2022/08/28 06:42:55;;;;;;;5.22;2.30;;;21.00;99.90;;;;;;5017913;28;20323;-67
2022/08/28 06:45:22;;;;;;;5.88;2.38;;;21.20;99.90;;;;;;5015982;28;20205;-67
2022/08/28 06:47:48;;;;;;;7.82;2.10;;;21.30;99.90;;;;;;5023185;28;20207;-67
2022/08/28 06:50:19;;;;;;;4.28;2.20;;;21.50;99.90;;;;;;5012324;28;20239;-67
2022/08/28 06:52:46;;;;;;;5.18;1.92;;;21.60;99.90;;;;;;5022950;28;20691;-67
2022/08/28 06:55:13;;;;;;;5.22;2.42;;;21.70;99.90;;;;;;5018046;28;20193;-67
2022/08/28 06:57:41;;;;;;;5.50;2.53;;;21.70;99.90;;;;;;5025056;28;20199;-67
2022/08/28 07:00:08;;;;;;;5.65;2.60;;;21.80;99.90;;;;;;5015639;28;20207;-67
2022/08/28 07:02:35;;;;;;;4.95;2.03;;;21.50;99.90;;;;;;5021710;28;20235;-66
2022/08/28 07:05:02;;;;;;;7.22;2.33;;;21.60;99.90;;;;;;5021589;28;20208;-66
2022/08/28 07:07:28;;;;;;;6.00;2.10;;;21.60;99.90;;;;;;5022749;28;20798;-67
2022/08/28 07:09:58;;;;;;;6.80;2.20;;;21.80;99.90;;;;;;5014040;28;20200;-67
2022/08/28 07:12:25;;;;;;;5.03;2.30;;;22.30;99.90;;;;;;5024455;28;21451;-67
2022/08/28 07:14:51;;;;;;;5.35;2.30;;;22.20;99.90;;;;;;5017727;28;20191;-67
2022/08/28 07:17:18;;;;;;;4.72;2.15;;;22.50;99.90;;;;;;5019640;28;20199;-67
2022/08/28 07:19:45;;;;;;;7.45;2.30;;;22.50;99.90;;;;;;5020023;28;20207;-67
2022/08/28 07:22:12;;;;;;;6.20;2.33;;;22.60;99.90;;;;;;5025294;28;20564;-67
2022/08/28 07:24:38;;;;;;;4.20;2.28;;;22.70;99.90;;;;;;5015635;28;20227;-66
2022/08/28 07:27:05;;;;;;;3.60;2.00;;;22.90;99.90;;;;;;5024455;28;20731;-66
2022/08/28 07:29:32;;;;;;;3.10;1.77;;;22.90;99.90;;;;;;5017012;28;20464;-66
2022/08/28 07:31:58;;;;;;;7.05;2.30;;;22.70;99.90;;;;;;5016020;28;20612;-65
2022/08/28 07:34:25;;;;;;;5.00;2.20;;;22.70;99.90;;;;;;5013307;28;20278;-66
2022/08/28 07:36:53;;;;;;;4.68;1.88;;;22.50;99.90;;;;;;5007519;28;20196;-66
2022/08/28 07:39:19;;;;;;;5.22;2.30;;;22.50;99.90;;;;;;5018184;28;20192;-66
2022/08/28 07:41:47;;;;;;;4.47;1.83;;;22.40;99.90;;;;;;5018381;28;20219;-66
2022/08/28 07:47:03;;;;;;;4.78;2.08;;;22.50;99.90;;;;;;5017493;28;20200;-66
2022/08/28 07:49:32;;;;;;;5.45;2.30;;;22.40;99.90;;;;;;5014521;28;21031;-66
2022/08/28 07:51:59;;;;;;;4.50;2.30;;;22.30;99.90;;;;;;5018347;28;20215;-67
2022/08/28 07:54:26;;;;;;;4.38;1.90;;;22.30;99.90;;;;;;5022438;28;20203;-66
2022/08/28 07:56:53;;;;;;;7.18;2.17;;;22.40;99.90;;;;;;5026588;28;20207;-67
2022/08/28 07:59:20;;;;;;;6.00;2.30;;;22.40;99.90;;;;;;5027185;28;20218;-67
2022/08/28 08:01:49;;;;;;;5.72;2.25;;;22.50;99.90;;;;;;5025532;28;20251;-67
2022/08/28 08:04:18;;;;;;;8.45;2.38;;;22.60;99.90;;;;;;5020094;28;20192;-67
2022/08/28 08:06:45;;;;;;;4.93;2.00;;;22.80;99.90;;;;;;5017200;28;20188;-67
2022/08/28 08:09:14;;;;;;;4.85;2.08;;;23.00;99.90;;;;;;5010044;28;20219;-67
2022/08/28 08:11:41;;;;;;;5.38;2.60;;;23.30;99.90;;;;;;5008828;28;20723;-67
2022/08/28 08:14:09;;;;;;;4.47;2.22;;;23.50;99.90;;;;;;5014815;28;20196;-68
2022/08/28 08:16:38;;;;;;;8.00;2.45;;;23.80;99.90;;;;;;5013057;28;20196;-67
2022/08/28 08:19:08;;;;;;;3.08;1.85;;;23.90;99.90;;;;;;5014049;28;20649;-68
2022/08/28 08:21:35;;;;;;;6.70;2.40;;;23.90;99.90;;;;;;5022219;28;20231;-68
2022/08/28 08:24:02;;;;;;;6.53;2.35;;;24.00;99.90;;;;;;5019287;28;20710;-68
2022/08/28 08:26:29;;;;;;;6.57;2.30;;;23.90;99.90;;;;;;5021363;28;20200;-68
2022/08/28 08:28:56;;;;;;;7.82;2.55;;;23.90;99.90;;;;;;5014337;28;20204;-68
2022/08/28 08:31:32;;;;;;;4.38;2.20;;;23.90;99.90;;;;;;5008766;28;20227;-68
2022/08/28 08:34:03;;;;;;;5.53;2.33;;;24.10;99.90;;;;;;5015446;28;20223;-68
2022/08/28 08:36:32;;;;;;;4.72;2.20;;;24.00;99.90;;;;;;5023803;28;20191;-68
2022/08/28 08:38:59;;;;;;;2.90;1.90;;;24.00;99.90;;;;;;5028731;28;20220;-69
2022/08/28 08:41:47;;;;;;;6.88;2.75;;;23.90;99.90;;;;;;5024538;28;20220;-69
2022/08/28 08:44:33;;;;;;;5.55;2.33;;;23.80;99.90;;;;;;5020127;28;20199;-69
2022/08/28 08:47:32;;;;;;;3.28;2.10;;;23.80;99.90;;;;;;5024261;28;20231;-70
2022/08/28 08:50:04;;;;;;;7.65;2.65;;;23.80;99.90;;;;;;5019217;28;20283;-70
2022/08/28 08:52:40;;;;;;;3.95;2.20;;;23.60;99.90;;;;;;5026122;28;20228;-70
2022/08/28 08:55:19;;;;;;;5.38;2.10;;;23.60;99.90;;;;;;5026748;28;20588;-70
2022/08/28 08:57:55;;;;;;;7.90;3.00;;;23.80;99.90;;;;;;5019996;28;20222;-70
2022/08/28 09:00:23;;;;;;;5.05;2.40;;;23.90;99.90;;;;;;5028532;28;20202;-66
2022/08/28 09:03:11;;;;;;;4.88;2.28;;;23.70;99.90;;;;;;5020679;28;20223;-66
2022/08/28 09:05:51;;;;;;;5.13;2.25;;;23.80;99.90;;;;;;5023325;28;20196;-66
2022/08/28 09:08:30;;;;;;;5.20;2.08;;;23.80;99.90;;;;;;5023905;28;20199;-66
2022/08/28 09:11:32;;;;;;;3.78;2.55;;;23.90;99.90;;;;;;5023391;28;20196;-66
2022/08/28 09:14:17;;;;;;;3.30;2.20;;;23.90;99.90;;;;;;5025873;28;20234;-69
2022/08/28 09:16:46;;;;;;;4.20;2.00;;;23.90;99.90;;;;;;5026320;28;20214;-68
2022/08/28 09:19:18;;;;;;;5.07;2.38;;;24.00;99.90;;;;;;5020983;28;20196;-66
2022/08/28 09:21:46;;;;;;;3.85;2.00;;;24.00;99.90;;;;;;5026392;28;20216;-66
2022/08/28 09:24:27;;;;;;;5.13;2.10;;;24.20;99.90;;;;;;5020175;28;20196;-67
2022/08/28 09:27:02;;;;;;;7.45;2.22;;;24.60;99.90;;;;;;5022413;28;20676;-66
2022/08/28 09:29:59;;;;;;;5.55;2.00;;;24.80;99.90;;;;;;5030250;28;20226;-68
2022/08/28 09:32:40;;;;;;;5.40;2.05;;;25.10;99.90;;;;;;5026832;28;20255;-68
2022/08/28 09:35:30;;;;;;;3.60;1.80;;;25.00;99.90;;;;;;5025252;28;20462;-68
2022/08/28 09:38:18;;;;;;;6.15;2.83;;;25.10;99.90;;;;;;5017814;28;20211;-69
2022/08/28 09:43:32;;;;;;;4.65;1.90;;;25.50;99.90;;;;;;5027598;28;20214;-68
2022/08/28 09:46:06;;;;;;;4.88;2.00;;;25.50;99.90;;;;;;5016669;28;20957;-68
2022/08/28 09:48:36;;;;;;;6.40;2.05;;;25.30;99.90;;;;;;5015930;28;20212;-68
2022/08/28 09:51:21;;;;;;;3.17;1.75;;;25.00;99.90;;;;;;5016880;28;20291;-68
2022/08/28 09:53:50;;;;;;;4.18;1.92;;;25.00;99.90;;;;;;5012430;28;20224;-68
2022/08/28 09:56:27;;;;;;;4.57;1.98;;;25.00;99.90;;;;;;5025903;28;20202;-67
2022/08/28 09:59:07;;;;;;;6.65;2.00;;;25.10;99.90;;;;;;5021246;28;20196;-68
2022/08/28 10:01:47;;;;;;;4.82;2.05;;;25.10;99.90;;;;;;5021124;28;20322;-68
2022/08/28 10:04:23;;;;;;;5.00;1.70;;;25.00;99.90;;;;;;5021125;28;20226;-69
2022/08/28 10:06:59;;;;;;;4.45;2.03;;;25.10;99.90;;;;;;5019679;28;20200;-68
2022/08/28 10:09:43;;;;;;;6.20;2.00;;;25.20;99.90;;;;;;5017360;28;20226;-72
2022/08/28 10:12:48;;;;;;;5.40;2.00;;;25.30;99.90;;;;;;5020325;28;20246;-67
2022/08/28 10:15:27;;;;;;;4.15;1.90;;;25.60;99.90;;;;;;5017052;28;20658;-69
2022/08/28 10:18:12;;;;;;;6.00;1.95;;;25.60;99.90;;;;;;5024021;28;20195;-68
2022/08/28 10:21:06;;;;;;;3.20;1.67;;;25.60;99.90;;;;;;5018820;28;20192;-68
2022/08/28 10:23:33;;;;;;;3.90;1.70;;;25.40;99.90;;;;;;5016597;28;20192;-68
2022/08/28 10:26:33;;;;;;;4.78;2.17;;;25.40;99.90;;;;;;5023730;28;20192;-68
2022/08/28 10:29:09;;;;;;;5.43;1.95;;;25.60;99.90;;;;;;5022705;28;20205;-66
2022/08/28 10:32:07;;;;;;;4.80;2.30;;;25.40;99.90;;;;;;5023628;28;20219;-66
2022/08/28 10:34:52;;;;;;;4.75;2.13;;;25.50;99.90;;;;;;5019008;28;20226;-66
2022/08/28 10:37:22;;;;;;;5.88;3.08;;;25.50;99.90;;;;;;5013743;28;20203;-69
2022/08/28 10:40:07;;;;;;;5.68;1.90;;;25.50;99.90;;;;;;5025762;28;20225;-68
2022/08/28 10:42:39;;;;;;;4.00;2.03;;;25.60;99.90;;;;;;5029978;28;20220;-67
2022/08/28 10:45:12;;;;;;;5.53;1.88;;;25.90;99.90;;;;;;5027475;28;20200;-68
2022/08/28 10:47:44;;;;;;;4.78;1.90;;;26.20;99.90;;;;;;5023408;28;20232;-69
2022/08/28 10:50:26;;;;;;;4.57;1.80;;;26.50;99.90;;;;;;5018983;28;20206;-67
2022/08/28 10:53:01;;;;;;;4.60;2.20;;;26.40;99.90;;;;;;5017976;28;20231;-69
2022/08/28 10:55:55;;;;;;;3.80;2.03;;;26.30;99.90;;;;;;5026854;28;20597;-68
2022/08/28 10:58:25;;;;;;;3.10;1.92;;;26.20;99.90;;;;;;5020355;28;20196;-69
2022/08/28 11:01:03;;;;;;;4.25;1.90;;;26.50;99.90;;;;;;5022413;28;20192;-68
2022/08/28 11:03:44;;;;;;;3.10;1.75;;;26.70;99.90;;;;;;5026655;28;20207;-68
2022/08/28 11:06:32;;;;;;;3.85;1.92;;;26.70;99.90;;;;;;5024563;28;20659;-68
2022/08/28 11:09:23;;;;;;;3.63;1.95;;;26.40;99.90;;;;;;5024136;28;20200;-67
2022/08/28 11:12:05;;;;;;;5.50;2.00;;;26.40;99.90;;;;;;5024059;28;20663;-69
2022/08/28 11:14:33;;;;;;;4.20;2.08;;;26.70;99.90;;;;;;5023173;28;20510;-68
2022/08/28 11:17:27;;;;;;;4.70;2.63;;;27.00;99.90;;;;;;5023506;28;20205;-69
2022/08/28 11:20:02;;;;;;;2.85;1.83;;;26.70;99.90;;;;;;5024086;28;20739;-68
2022/08/28 11:22:33;;;;;;;4.88;1.92;;;26.50;99.90;;;;;;5020032;28;20297;-66
2022/08/28 11:25:19;;;;;;;4.90;1.73;;;26.30;99.90;;;;;;5016481;28;20683;-66
2022/08/28 11:28:23;;;;;;;2.42;1.50;;;26.20;99.90;;;;;;5019658;28;20227;-65
2022/08/28 11:31:04;;;;;;;3.75;1.88;;;26.30;99.90;;;;;;5023294;28;20206;-69
2022/08/28 11:33:51;;;;;;;4.63;2.25;;;26.50;99.90;;;;;;5023818;28;20219;-69
2022/08/28 11:36:18;;;;;;;3.90;2.00;;;26.20;99.90;;;;;;5020659;28;20664;-69
2022/08/28 11:38:45;;;;;;;4.53;1.95;;;26.30;99.90;;;;;;5018179;28;20215;-68
2022/08/28 11:41:35;;;;;;;4.90;2.30;;;26.60;99.90;;;;;;5021451;28;20191;-68
2022/08/28 11:44:07;;;;;;;5.85;2.15;;;26.90;99.90;;;;;;5015195;28;20720;-68
2022/08/28 11:46:46;;;;;;;4.53;2.00;;;26.80;99.90;;;;;;5016907;28;20679;-68
2022/08/28 11:49:25;;;;;;;3.85;2.08;;;26.90;99.90;;;;;;5020805;28;20680;-67
2022/08/28 11:51:57;;;;;;;4.20;2.03;;;27.10;99.90;;;;;;5017209;28;20232;-68
2022/08/28 11:54:54;;;;;;;2.40;1.80;;;27.30;99.90;;;;;;5022449;28;20226;-68
2022/08/28 11:57:23;;;;;;;5.38;1.95;;;27.70;99.90;;;;;;5025576;28;20198;-68
2022/08/28 11:59:52;;;;;;;4.07;2.20;;;28.10;99.90;;;;;;5025866;28;20199;-68
2022/08/28 12:02:37;;;;;;;5.32;2.00;;;27.80;99.90;;;;;;5025546;28;20245;-69
2022/08/28 12:05:08;;;;;;;4.57;1.67;;;28.10;99.90;;;;;;5023979;28;20204;-68
2022/08/28 12:07:40;;;;;;;5.15;2.42;;;28.50;99.90;;;;;;5022886;28;20274;-68
2022/08/28 12:10:28;;;;;;;4.22;1.90;;;28.50;99.90;;;;;;5018237;28;20544;-68
2022/08/28 12:13:00;;;;;;;4.35;1.70;;;28.40;99.90;;;;;;5015034;28;20215;-68
2022/08/28 12:15:27;;;;;;;4.07;2.00;;;28.10;99.90;;;;;;5020464;28;20200;-68
2022/08/28 12:17:58;;;;;;;5.57;2.17;;;27.90;99.90;;;;;;5024857;28;20668;-68
2022/08/28 12:20:37;;;;;;;3.67;1.92;;;27.70;99.90;;;;;;5026300;28;20564;-66
2022/08/28 12:23:22;;;;;;;3.65;2.08;;;27.30;99.90;;;;;;5023766;28;20719;-66
2022/08/28 12:25:57;;;;;;;4.15;2.00;;;27.00;99.90;;;;;;5022147;28;20695;-66
2022/08/28 12:28:42;;;;;;;4.25;1.92;;;27.00;99.90;;;;;;5024840;28;20671;-66
2022/08/28 12:32:09;;;;;;;3.33;1.90;;;27.00;99.90;;;;;;5016299;28;20210;-66
2022/08/28 12:34:35;;;;;;;2.60;1.90;;;27.00;99.90;;;;;;5025154;28;20246;-66
2022/08/28 12:37:06;;;;;;;2.33;1.80;;;27.60;99.90;;;;;;5020353;28;20201;-66
2022/08/28 12:39:33;;;;;;;3.55;2.17;;;28.10;99.90;;;;;;5023427;28;20198;-66
2022/08/28 12:42:02;;;;;;;3.17;1.90;;;28.40;99.90;;;;;;5021218;28;20220;-65
2022/08/28 12:44:32;;;;;;;2.45;2.10;;;28.10;99.90;;;;;;5026442;28;20208;-66
2022/08/28 12:46:59;;;;;;;3.33;1.80;;;27.90;99.90;;;;;;5019914;28;20195;-66
2022/08/28 12:49:34;;;;;;;4.50;1.95;;;28.10;99.90;;;;;;5023796;28;20515;-66
2022/08/28 12:52:21;;;;;;;2.38;1.98;;;28.30;99.90;;;;;;5017449;28;20230;-66
2022/08/28 12:54:49;;;;;;;5.10;2.10;;;28.60;99.90;;;;;;5022593;28;20574;-66
2022/08/28 12:57:19;;;;;;;3.00;1.90;;;28.60;99.90;;;;;;5025445;28;20191;-66
2022/08/28 12:59:49;;;;;;;3.35;2.00;;;28.90;99.90;;;;;;5024032;28;20207;-66
2022/08/28 13:02:24;;;;;;;5.25;2.05;;;29.30;99.90;;;;;;5022759;28;20227;-66
2022/08/28 13:05:02;;;;;;;3.28;1.80;;;29.40;99.90;;;;;;5023881;28;20716;-66
2022/08/28 13:07:44;;;;;;;3.60;2.10;;;29.60;99.90;;;;;;5024187;28;20203;-66
2022/08/28 13:10:19;;;;;;;3.50;1.98;;;29.80;99.90;;;;;;5018673;28;20211;-66
2022/08/28 13:12:56;;;;;;;3.38;1.80;;;29.40;99.90;;;;;;5022435;28;20222;-66
2022/08/28 13:15:47;;;;;;;2.88;1.90;;;29.00;99.90;;;;;;5025718;28;20302;-66
2022/08/28 13:18:32;;;;;;;2.72;1.80;;;29.00;99.90;;;;;;5018497;28;20199;-66
2022/08/28 13:21:18;;;;;;;5.40;2.00;;;29.20;99.90;;;;;;5018256;28;20199;-66
2022/08/28 13:24:20;;;;;;;3.85;1.80;;;29.00;99.90;;;;;;5025612;28;20668;-66